Main page
METAR-TAF:

METAR-TAF

Airports :

Kassel Airport

Kassel, Germany

latitude: 51-24N, longitude: 009-23E, elevation: 277 m

Current weather observation

The report was made 15 minutes ago, at 13:50 UTC
Wind 13 kt from the West
Temperature 16°C
Humidity 39%
Pressure 1018 hPa
Visibility 10 km or more
Broken clouds at a height of 4600 ft
Overcast at a height of 13000 ft

METAR: EDVK 221350Z 26013KT 9999 BKN046 OVC130 16/02 Q1018

Time: 16:05 (14:05 UTC)

Forecast

The report was made 3 hours and 5 minutes ago, at 11:00 UTC
Forecast valid from 22 at 12 UTC to 22 at 21 UTC
Wind 10 kt from the Southwest
Visibility 10 km or more
Scattered clouds at a height of 3500 ft
Temporary
from 22 at 12 UTC to 22 at 17 UTC
Wind 15 kt from the West/Southwest with gusts up to 30 kt
Becoming
from 22 at 17 UTC to 22 at 20 UTC
Wind 5 kt from the South/Southwest

TAF: EDVK 221100Z 2212/2221 23010KT 9999 SCT035 TEMPO 2212/2217 24015G30KT BECMG 2217/2220 20005KT

Weather observations and forecasts of more than 4000 airports (METAR and TAF reports).

The available stations are represented by yellow and red dots on the map.

Hover mouse over dot to see the name of the station.

Then click to see weather observations and forecasts.

To change the map : click on the green buttons with a black cross to zoom in, on the green button with a dash to zoom out, or on the green arrows for adjacent maps.


METAR-TAF: